createdAt,value
2023-03-24T00:03:50.036Z,15.15
2023-03-24T00:08:51.733Z,14.83
2023-03-24T00:13:53.305Z,14.67
2023-03-24T00:18:55.023Z,14.98
2023-03-24T00:23:56.539Z,15.00
2023-03-24T00:28:58.087Z,15.07
2023-03-24T00:34:00.155Z,14.94
2023-03-24T00:39:02.263Z,15.22
2023-03-24T00:44:03.958Z,15.12
2023-03-24T00:49:07.580Z,15.26
2023-03-24T00:54:12.072Z,14.99
2023-03-24T00:59:13.516Z,15.09
2023-03-24T01:04:15.009Z,15.21
2023-03-24T01:09:16.568Z,15.09
2023-03-24T01:14:18.100Z,14.97
2023-03-24T01:19:19.620Z,14.97
2023-03-24T01:24:22.019Z,14.70
2023-03-24T01:29:24.061Z,14.86
2023-03-24T01:34:25.770Z,14.91
2023-03-24T01:39:27.393Z,14.88
2023-03-24T01:44:33.622Z,14.81
2023-03-24T01:49:39.728Z,14.91
2023-03-24T01:54:50.535Z,14.95
2023-03-24T01:59:57.573Z,14.74
2023-03-24T02:05:29.343Z,14.70
2023-03-24T02:10:33.834Z,14.79
2023-03-24T02:15:45.173Z,14.81
2023-03-24T02:21:02.855Z,14.66
2023-03-24T02:26:34.684Z,14.43
2023-03-24T02:32:06.627Z,14.62
2023-03-24T02:37:29.730Z,14.67
2023-03-24T02:42:58.823Z,14.81
2023-03-24T02:48:18.036Z,14.67
2023-03-24T02:53:25.582Z,14.99
2023-03-24T02:58:53.605Z,14.99
2023-03-24T03:03:58.715Z,15.16
2023-03-24T03:09:05.092Z,14.85
2023-03-24T03:14:13.522Z,14.92
2023-03-24T03:19:22.720Z,14.80
2023-03-24T03:24:30.298Z,14.90
2023-03-24T03:29:38.014Z,14.88
2023-03-24T03:35:16.924Z,14.80
2023-03-24T03:40:25.126Z,14.92
2023-03-24T03:45:34.063Z,14.93
2023-03-24T03:50:36.633Z,14.89
2023-03-24T03:55:41.348Z,15.00
2023-03-24T04:00:43.234Z,14.95
2023-03-24T04:06:23.195Z,14.83
2023-03-24T04:11:36.623Z,14.89
2023-03-24T04:17:24.832Z,14.87
2023-03-24T04:22:38.154Z,14.80
2023-03-24T04:28:26.829Z,14.64
2023-03-24T04:33:44.712Z,14.71
2023-03-24T04:38:50.044Z,14.68
2023-03-24T04:44:09.034Z,14.70
2023-03-24T04:49:19.856Z,14.66
2023-03-24T04:54:23.543Z,14.58
2023-03-24T04:59:31.104Z,14.54
2023-03-24T05:04:32.996Z,14.36
2023-03-24T05:09:41.692Z,14.40
2023-03-24T05:14:43.277Z,14.61
2023-03-24T05:19:44.927Z,14.89
2023-03-24T05:24:46.499Z,14.97
2023-03-24T05:29:48.041Z,14.92
2023-03-24T05:34:56.336Z,14.77
2023-03-24T05:40:04.563Z,14.45
2023-03-24T05:45:22.049Z,14.38
2023-03-24T05:50:23.652Z,14.46
2023-03-24T05:55:25.637Z,14.65
2023-03-24T06:00:34.646Z,14.88
2023-03-24T06:05:46.285Z,14.75
2023-03-24T06:10:48.857Z,14.62
2023-03-24T06:15:50.579Z,14.66
2023-03-24T06:21:09.373Z,14.74
2023-03-24T06:26:12.746Z,14.60
2023-03-24T06:31:24.395Z,14.80
2023-03-24T06:36:27.750Z,14.70
2023-03-24T06:41:29.621Z,14.57
2023-03-24T06:46:34.682Z,14.67
2023-03-24T06:51:36.458Z,14.80
2023-03-24T06:56:38.351Z,14.89
2023-03-24T07:01:41.298Z,15.01
2023-03-24T07:07:19.707Z,15.10
2023-03-24T07:12:28.471Z,15.04
2023-03-24T07:17:30.269Z,15.08
2023-03-24T07:22:49.832Z,15.09
2023-03-24T07:28:00.386Z,14.97
2023-03-24T07:33:03.761Z,15.03
2023-03-24T07:38:07.007Z,15.02
2023-03-24T07:43:08.534Z,14.94
2023-03-24T07:48:19.257Z,14.73
2023-03-24T07:53:20.827Z,14.77
2023-03-24T07:58:22.762Z,14.70
2023-03-24T08:03:38.715Z,14.79
2023-03-24T08:08:52.189Z,14.95
2023-03-24T08:13:53.701Z,14.82
2023-03-24T08:18:55.271Z,14.81
2023-03-24T08:23:56.730Z,14.86
2023-03-24T08:28:58.223Z,15.01
2023-03-24T08:33:59.716Z,15.22
2023-03-24T08:39:01.253Z,15.37
2023-03-24T08:44:06.698Z,15.50
2023-03-24T08:49:08.825Z,15.37
2023-03-24T08:54:10.322Z,15.46
2023-03-24T08:59:11.836Z,15.53
2023-03-24T09:04:13.342Z,15.58
2023-03-24T09:09:14.865Z,15.74
2023-03-24T09:14:16.355Z,15.93
2023-03-24T09:19:17.883Z,16.03
2023-03-24T09:24:19.379Z,16.21
2023-03-24T09:29:20.912Z,16.33
2023-03-24T09:34:23.536Z,16.38
2023-03-24T09:39:25.077Z,16.25
2023-03-24T09:44:46.292Z,16.67
2023-03-24T09:49:49.346Z,16.65
2023-03-24T09:54:56.412Z,16.57
2023-03-24T09:59:57.955Z,16.57
2023-03-24T10:04:59.727Z,16.41
2023-03-24T10:10:01.758Z,16.49
2023-03-24T10:15:17.686Z,16.62
2023-03-24T10:20:52.302Z,16.47
2023-03-24T10:25:53.754Z,16.49
2023-03-24T10:31:00.614Z,16.52
2023-03-24T10:36:12.840Z,16.42
2023-03-24T10:41:19.234Z,16.67
2023-03-24T10:46:24.971Z,16.61
2023-03-24T10:51:31.802Z,16.64
2023-03-24T10:56:43.302Z,16.80
2023-03-24T11:01:45.850Z,16.80
2023-03-24T11:07:05.222Z,17.08
2023-03-24T11:12:21.209Z,17.36
2023-03-24T11:17:24.310Z,17.58
2023-03-24T11:22:25.952Z,17.51
2023-03-24T11:27:27.475Z,17.47
2023-03-24T11:32:29.080Z,17.46
2023-03-24T11:37:35.676Z,17.30
2023-03-24T11:42:44.134Z,16.89
2023-03-24T11:47:48.241Z,16.60
2023-03-24T11:52:56.573Z,16.61
2023-03-24T11:58:03.651Z,16.64
2023-03-24T12:03:56.353Z,16.54
2023-03-24T12:09:33.163Z,16.42
2023-03-24T12:14:53.734Z,16.30
2023-03-24T12:20:13.266Z,16.32
2023-03-24T12:25:27.521Z,16.26
2023-03-24T12:30:34.980Z,16.34
2023-03-24T12:36:20.629Z,16.10
2023-03-24T12:41:46.501Z,16.21
2023-03-24T12:46:54.426Z,16.11
2023-03-24T12:52:01.838Z,16.06
2023-03-24T12:57:15.557Z,15.87
2023-03-24T13:02:43.117Z,15.65
2023-03-24T13:07:45.237Z,15.69
2023-03-24T13:13:05.193Z,15.50
2023-03-24T13:18:09.804Z,15.18
2023-03-24T13:23:23.606Z,15.08
2023-03-24T13:28:34.705Z,15.02
2023-03-24T13:33:38.512Z,15.07
2023-03-24T13:38:52.998Z,15.07
2023-03-24T13:44:01.381Z,14.85
2023-03-24T13:49:06.537Z,15.12
2023-03-24T13:54:20.214Z,15.02
2023-03-24T13:59:29.088Z,14.89
2023-03-24T14:04:45.093Z,14.68
2023-03-24T14:10:02.052Z,14.75
2023-03-24T14:15:14.126Z,14.77
2023-03-24T14:20:32.112Z,14.62
2023-03-24T14:25:34.191Z,14.58
2023-03-24T14:30:35.761Z,14.56
2023-03-24T14:35:43.751Z,14.70
2023-03-24T14:40:59.935Z,14.77
2023-03-24T14:46:03.691Z,14.79
2023-03-24T14:51:47.344Z,15.13
2023-03-24T14:56:52.858Z,15.18
2023-03-24T15:02:03.529Z,15.11
2023-03-24T15:07:05.169Z,15.14
2023-03-24T15:12:06.699Z,15.11
2023-03-24T15:17:23.794Z,15.07
2023-03-24T15:22:25.265Z,14.99
2023-03-24T15:27:28.904Z,14.96
2023-03-24T15:32:30.833Z,14.91
2023-03-24T15:37:41.296Z,14.48
2023-03-24T15:42:44.856Z,14.45
2023-03-24T15:47:46.428Z,14.59
2023-03-24T15:53:18.570Z,14.43
2023-03-24T15:58:25.914Z,14.56
2023-03-24T16:03:29.324Z,14.58
2023-03-24T16:08:36.125Z,14.55
2023-03-24T16:13:43.833Z,14.40
2023-03-24T16:18:47.060Z,14.11
2023-03-24T16:23:51.085Z,13.90
2023-03-24T16:28:54.239Z,13.76
2023-03-24T16:33:57.885Z,13.87
2023-03-24T16:39:00.414Z,13.78
2023-03-24T16:44:01.866Z,13.86
2023-03-24T16:49:05.928Z,14.00
2023-03-24T16:54:08.141Z,14.04
2023-03-24T16:59:09.632Z,14.11
2023-03-24T17:04:12.934Z,14.17
2023-03-24T17:09:14.687Z,14.15
2023-03-24T17:14:16.326Z,14.15
2023-03-24T17:19:20.333Z,14.23
2023-03-24T17:24:22.043Z,14.24
2023-03-24T17:29:23.576Z,14.29
2023-03-24T17:34:25.090Z,14.29
2023-03-24T17:39:26.591Z,14.18
2023-03-24T17:44:28.645Z,14.12
2023-03-24T17:49:30.209Z,13.80
2023-03-24T17:54:31.687Z,14.01
2023-03-24T17:59:33.883Z,14.13
2023-03-24T18:04:35.482Z,14.10
2023-03-24T18:09:37.139Z,13.95
2023-03-24T18:14:38.684Z,13.77
2023-03-24T18:19:40.253Z,13.66
2023-03-24T18:24:41.734Z,13.26
2023-03-24T18:29:43.207Z,12.76
2023-03-24T18:34:44.873Z,12.31
2023-03-24T18:39:46.442Z,12.35
2023-03-24T18:44:48.141Z,12.58
2023-03-24T18:49:49.697Z,12.57
2023-03-24T18:54:51.261Z,12.56
2023-03-24T18:59:52.758Z,12.83
2023-03-24T19:04:54.224Z,12.90
2023-03-24T19:09:55.742Z,12.65
2023-03-24T19:14:57.284Z,12.73
2023-03-24T19:19:58.742Z,12.51
2023-03-24T19:25:00.186Z,12.47
2023-03-24T19:30:01.671Z,12.59
2023-03-24T19:35:03.746Z,12.64
2023-03-24T19:40:06.834Z,12.59
2023-03-24T19:45:09.666Z,12.63
2023-03-24T19:50:12.379Z,12.51
2023-03-24T19:55:14.051Z,12.36
2023-03-24T20:00:15.945Z,12.22
2023-03-24T20:05:17.492Z,12.37
2023-03-24T20:10:18.943Z,12.31
2023-03-24T20:15:20.539Z,12.39
2023-03-24T20:20:21.992Z,12.52
2023-03-24T20:25:23.488Z,12.64
2023-03-24T20:30:25.043Z,12.68
2023-03-24T20:35:26.615Z,12.74
2023-03-24T20:40:28.200Z,12.78
2023-03-24T20:45:29.678Z,12.61
2023-03-24T20:50:31.193Z,12.61
2023-03-24T20:55:32.679Z,12.62
2023-03-24T21:00:35.205Z,12.65
2023-03-24T21:05:36.644Z,12.45
2023-03-24T21:10:38.132Z,12.12
2023-03-24T21:15:44.047Z,11.97
2023-03-24T21:20:55.459Z,11.94
2023-03-24T21:25:56.956Z,11.80
2023-03-24T21:30:59.804Z,11.86
2023-03-24T21:36:01.424Z,11.81
2023-03-24T21:41:03.916Z,11.92
2023-03-24T21:46:05.388Z,11.84
2023-03-24T21:51:06.842Z,11.86
2023-03-24T21:56:08.425Z,11.91
2023-03-24T22:01:09.914Z,11.85
2023-03-24T22:06:11.461Z,11.87
2023-03-24T22:11:12.973Z,11.77
2023-03-24T22:16:14.612Z,11.61
2023-03-24T22:21:16.143Z,11.75
2023-03-24T22:26:17.656Z,11.81
2023-03-24T22:31:19.115Z,11.95
2023-03-24T22:36:20.690Z,12.19
2023-03-24T22:41:22.129Z,11.94
2023-03-24T22:46:23.680Z,11.98
2023-03-24T22:51:25.251Z,11.95
2023-03-24T22:56:26.780Z,11.94
2023-03-24T23:01:28.333Z,12.05
2023-03-24T23:06:29.859Z,12.08
2023-03-24T23:11:32.244Z,12.06
2023-03-24T23:16:36.155Z,12.18
2023-03-24T23:21:38.030Z,12.14
2023-03-24T23:26:39.488Z,12.07
2023-03-24T23:31:41.158Z,12.14
2023-03-24T23:36:42.760Z,12.20
2023-03-24T23:41:44.234Z,12.22
2023-03-24T23:46:45.730Z,12.03
2023-03-24T23:51:47.312Z,11.84
2023-03-24T23:56:48.819Z,11.77
